Latest Weather Observations for Applethorpe

IDQ60801

Issued at 9:32 pm EST Thursday 23 February 2017 (issued every 30 minutes, with the page automatically refreshed every 10 minutes)

About weather observations | Map of weather stations | Latest weather observations for QLD | Other Formats
Station Details ID: 041175 Name: APPLETHORPE Lat: -28.62 Lon: 151.95 Height: 871.6 m
Data from the previous 72 hours. | See also: Recent months at Applethorpe
Date/Time
EST
Temp
°C
App
Temp
°C
Dew
Point
°C
Rel
Hum
%
Delta-T
°C
Wind Press
QNH
hPa
Press
MSL
hPa
Rain since
9am
mm
Dir  Spd
km/h
Gust
km/h
Spd
kts
Gust
kts
23/09:00pm 16.4 17.1 13.3 82 1.8 ENE 2 4 1 2 1023.0 1018.5 0.0
23/08:30pm 17.1 17.7 13.0 77 2.4 E 2 6 1 3 1023.1 1018.6 0.0
23/08:00pm 16.8 17.7 13.0 78 2.2 CALM 0 0 0 0 1022.8 1018.3 0.0
23/07:30pm 17.4 18.6 13.7 79 2.2 CALM 0 0 0 0 1022.7 1018.2 0.0
23/07:00pm 19.3 19.9 13.0 67 3.7 ENE 2 4 1 2 1022.5 1017.9 0.0
23/06:30pm 21.3 21.5 11.8 54 5.5 E 2 6 1 3 1022.2 1017.6 0.0
23/06:00pm 23.1 22.3 11.6 48 6.7 E 7 17 4 9 1021.9 1017.4 0.0
23/05:30pm 24.2 23.3 11.3 44 7.5 E 7 15 4 8 1021.7 1017.2 0.0
23/05:00pm 25.2 24.3 11.2 41 8.2 E 7 19 4 10 1021.6 1017.0 0.0
23/04:30pm 25.8 24.4 10.9 39 8.7 E 9 20 5 11 1021.2 1016.6 0.0
23/04:00pm 26.0 24.1 10.5 37 9.0 E 11 20 6 11 1021.1 1016.5 0.0
23/03:30pm 26.7 25.1 10.3 35 9.5 ESE 9 19 5 10 1021.0 1016.4 0.0
23/03:00pm 27.5 26.0 10.6 34 9.9 E 9 17 5 9 1021.2 1016.6 0.0
23/02:30pm 27.2 25.9 10.1 34 9.9 E 7 17 4 9 1021.4 1016.8 0.0
23/02:00pm 27.2 25.7 10.4 35 9.8 ENE 9 17 5 9 1021.6 1017.0 0.0
23/01:30pm 26.7 25.1 10.1 35 9.6 ESE 9 19 5 10 1021.8 1017.3 0.0
23/01:00pm 26.7 26.0 11.9 39 8.8 ENE 7 15 4 8 1021.9 1017.4 0.0
23/12:30pm 25.9 25.2 11.9 41 8.3 E 7 15 4 8 1022.2 1017.6 0.0
23/12:00pm 24.8 23.7 12.1 45 7.5 ESE 9 15 5 8 1022.4 1017.8 0.0
23/11:30am 25.2 24.8 13.1 47 7.3 E 7 15 4 8 1022.4 1017.8 0.0
23/11:00am 24.5 24.0 12.8 48 7.0 E 7 19 4 10 1022.8 1018.3 0.0
23/10:30am 23.2 22.2 12.4 50 6.4 E 9 20 5 11 1023.1 1018.6 0.0
23/10:00am 21.6 20.3 12.4 55 5.4 ESE 11 19 6 10 1023.1 1018.6 0.0
23/09:30am 21.2 19.8 12.1 56 5.3 ESE 11 20 6 11 1023.2 1018.7 0.0
23/09:00am 19.9 18.6 12.5 62 4.3 ESE 11 20 6 11 1023.4 1018.8 0.0
23/08:30am 19.2 18.3 12.5 65 3.9 E 9 19 5 10 1023.1 1018.6 0.0
23/08:00am 18.3 17.0 12.4 68 3.4 E 11 22 6 12 1022.9 1018.4 0.0
23/07:30am 17.3 16.8 12.8 75 2.6 ESE 7 13 4 7 1022.8 1018.3 0.0
23/07:00am 16.1 15.8 13.4 84 1.6 ESE 7 13 4 7 1022.8 1018.3 0.0
23/06:30am 14.5 14.8 13.3 92 0.7 E 4 9 2 5 1022.6 1018.0 0.0
23/06:00am 14.0 13.8 13.1 94 0.5 ESE 6 11 3 6 1022.5 1017.9 0.0
23/05:30am 13.9 14.1 13.0 94 0.5 ESE 4 9 2 5 1022.0 1017.5 0.0
23/05:00am 14.3 14.2 13.3 94 0.6 ESE 6 11 3 6 1021.7 1017.2 0.0
23/04:30am 14.5 14.5 13.5 94 0.6 E 6 11 3 6 1021.5 1016.9 0.0
23/04:00am 14.8 14.8 13.6 92 0.7 E 6 13 3 7 1021.5 1016.9 0.0
23/03:30am 15.0 15.0 13.6 91 0.8 E 6 15 3 8 1021.5 1016.9 0.0
23/03:00am 14.9 15.0 13.9 94 0.6 E 6 13 3 7 1021.5 1016.9 0.0
23/02:30am 15.0 15.4 13.8 92 0.7 ESE 4 7 2 4 1021.8 1017.3 0.0
23/02:00am 14.9 14.9 13.7 92 0.7 E 6 11 3 6 1022.0 1017.5 0.0
23/01:30am 15.1 15.1 13.7 91 0.8 ESE 6 9 3 5 1022.3 1017.7 0.0
23/01:00am 15.1 15.5 13.6 91 0.9 ESE 4 9 2 5 1022.6 1018.0 0.0
23/12:30am 15.2 15.2 13.7 91 0.9 ESE 6 9 3 5 1022.7 1018.2 0.0
23/12:00am 15.5 15.6 13.8 90 1.0 ESE 6 11 3 6 1022.8 1018.3 0.0
 
Date/Time
EST
Temp
°C
App
Temp
°C
Dew
Point
°C
Rel
Hum
%
Delta-T
°C
Wind Press
QNH
hPa
Press
MSL
hPa
Rain since
9am
mm
Dir  Spd
km/h
Gust
km/h
Spd
kts
Gust
kts
22/11:30pm 16.1 15.9 13.5 84 1.5 E 7 13 4 7 1023.2 1018.7 0.0
22/11:00pm 16.5 16.2 13.2 81 1.9 E 7 13 4 7 1023.4 1018.8 0.0
22/10:30pm 16.6 16.3 13.3 81 1.9 ENE 7 17 4 9 1023.2 1018.7 0.0
22/10:00pm 17.1 16.9 13.7 80 2.0 E 7 19 4 10 1023.5 1018.9 0.0
22/09:30pm 17.2 16.3 13.8 80 2.0 E 11 20 6 11 1023.4 1018.8 0.0
22/09:00pm 17.5 17.1 14.1 80 2.0 E 9 20 5 11 1023.1 1018.6 0.0
22/08:30pm 17.7 17.0 14.2 80 2.1 E 11 20 6 11 1023.2 1018.7 0.0
22/08:00pm 17.6 17.8 14.8 84 1.7 E 7 20 4 11 1022.7 1018.2 0.0
22/07:30pm 17.8 18.0 14.6 81 1.9 E 7 17 4 9 1022.5 1017.9 0.0
22/07:00pm 18.4 18.1 14.4 77 2.4 ESE 9 15 5 8 1022.2 1017.6 0.0
22/06:30pm 19.3 18.9 14.1 72 3.1 ESE 9 19 5 10 1021.9 1017.4 0.0
22/06:00pm 20.8 19.8 13.4 62 4.4 ESE 11 20 6 11 1021.6 1017.0 0.0
22/05:30pm 22.3 21.6 13.1 56 5.5 ESE 9 20 5 11 1021.3 1016.7 0.0
22/05:00pm 22.7 20.9 12.1 51 6.2 ESE 13 24 7 13 1021.1 1016.5 0.0
22/04:30pm 23.2 21.9 12.4 50 6.4 ESE 11 20 6 11 1021.2 1016.6 0.0
22/04:00pm 23.3 22.2 13.1 52 6.1 ESE 11 19 6 10 1021.2 1016.6 0.0
22/03:30pm 23.5 22.5 13.4 53 6.1 ESE 11 19 6 10 1021.4 1016.8 0.0
22/03:00pm 22.8 21.4 12.3 51 6.2 E 11 20 6 11 1021.5 1016.9 0.0
22/02:30pm 22.9 21.8 12.0 50 6.4 ESE 9 19 5 10 1021.7 1017.2 0.0
22/02:00pm 25.2 24.8 12.5 45 7.6 ESE 6 13 3 7 1021.8 1017.3 0.0
22/01:30pm 26.0 25.8 13.5 46 7.6 E 7 17 4 9 1022.2 1017.6 0.0
22/01:00pm 24.7 24.1 13.5 49 6.8 ESE 9 24 5 13 1022.6 1018.0 0.0
22/12:30pm 24.4 23.5 13.7 51 6.5 ESE 11 24 6 13 1022.6 1018.0 0.0
22/12:00pm 24.0 23.4 13.4 51 6.4 ESE 9 22 5 12 1022.9 1018.4 0.0
22/11:30am 22.9 21.8 13.0 53 5.9 E 11 19 6 10 1023.4 1018.8 0.0
22/11:00am 21.6 20.9 14.2 62 4.5 ESE 11 22 6 12 1023.5 1018.9 0.0
22/10:30am 22.4 21.3 14.2 59 5.0 E 13 26 7 14 1023.7 1019.1 0.0
22/10:00am 21.4 20.4 14.5 64 4.2 E 13 24 7 13 1023.9 1019.4 0.0
22/09:30am 19.8 18.8 14.5 71 3.2 E 13 20 7 11 1024.1 1019.6 0.0
22/09:00am 18.9 18.4 14.9 77 2.4 ESE 11 24 6 13 1024.0 1019.5 0.0
22/08:30am 18.4 17.9 14.9 80 2.1 E 11 24 6 13 1023.8 1019.3 0.0
22/08:00am 17.6 17.1 14.9 84 1.6 ESE 11 22 6 12 1023.7 1019.1 0.0
22/07:30am 17.4 17.4 15.1 86 1.4 E 9 15 5 8 1023.7 1019.1 0.0
22/07:00am 17.1 17.1 15.3 89 1.1 E 9 19 5 10 1023.2 1018.7 0.0
22/06:30am 16.5 16.5 15.2 92 0.8 ESE 9 19 5 10 1023.0 1018.5 0.0
22/06:00am 16.1 16.4 14.9 93 0.7 E 7 15 4 8 1022.6 1018.0 0.0
22/05:30am 15.9 16.2 14.9 94 0.6 E 7 15 4 8 1022.3 1017.7 0.0
22/05:00am 15.9 16.3 14.7 93 0.7 E 6 13 3 7 1022.0 1017.5 0.0
22/04:30am 15.9 16.1 14.7 93 0.7 ESE 7 17 4 9 1021.9 1017.4 0.0
22/04:00am 15.9 16.6 14.6 92 0.8 ENE 4 9 2 5 1021.8 1017.3 0.0
22/03:30am 15.9 17.0 14.6 92 0.8 E 2 4 1 2 1021.5 1016.9 0.0
22/03:00am 15.9 16.2 14.4 91 0.9 E 6 13 3 7 1021.5 1016.9 0.0
22/02:30am 16.1 16.3 14.2 88 1.1 E 6 11 3 6 1021.5 1016.9 0.0
22/02:00am 16.4 16.7 14.6 89 1.1 E 6 13 3 7 1021.7 1017.2 0.0
22/01:30am 16.7 16.4 14.5 87 1.3 ESE 9 19 5 10 1021.8 1017.3 0.0
22/01:00am 16.9 17.1 14.7 87 1.3 E 7 15 4 8 1022.0 1017.5 0.0
22/12:30am 17.0 17.1 14.5 85 1.5 E 7 15 4 8 1022.2 1017.6 0.0
22/12:00am 16.9 16.7 14.6 86 1.4 E 9 20 5 11 1022.3 1017.7 0.0
 
Date/Time
EST
Temp
°C
App
Temp
°C
Dew
Point
°C
Rel
Hum
%
Delta-T
°C
Wind Press
QNH
hPa
Press
MSL
hPa
Rain since
9am
mm
Dir  Spd
km/h
Gust
km/h
Spd
kts
Gust
kts
21/11:30pm 17.2 17.5 15.0 87 1.3 E 7 17 4 9 1022.5 1017.9 0.0
21/11:00pm 17.4 17.4 15.1 86 1.4 E 9 19 5 10 1022.6 1018.0 0.0
21/10:30pm 17.4 17.8 15.3 87 1.3 ESE 7 19 4 10 1022.7 1018.2 0.0
21/10:00pm 17.5 17.6 15.4 87 1.3 E 9 19 5 10 1022.7 1018.2 0.0
21/09:30pm 17.8 17.8 15.3 85 1.5 E 9 19 5 10 1022.8 1018.3 0.0
21/09:00pm 17.9 17.9 15.3 85 1.6 E 9 17 5 9 1022.8 1018.3 0.0
21/08:30pm 18.0 17.7 15.4 85 1.6 ESE 11 22 6 12 1022.5 1017.9 0.0
21/08:00pm 18.7 19.0 16.1 85 1.6 E 9 22 5 12 1022.0 1017.5 0.0
21/07:30pm 19.1 19.8 16.0 82 1.9 ESE 7 17 4 9 1021.8 1017.3 0.0
21/07:00pm 19.6 20.0 16.2 81 2.1 ESE 9 19 5 10 1021.6 1017.0 0.0
21/06:30pm 20.1 20.9 16.4 79 2.3 ESE 7 17 4 9 1021.4 1016.8 0.0
21/06:00pm 21.3 22.1 15.8 71 3.4 E 6 13 3 7 1020.9 1016.3 0.0
21/05:30pm 22.4 21.9 14.9 62 4.6 E 11 24 6 13 1020.4 1015.8 0.0
21/05:00pm 23.1 23.1 14.2 57 5.4 E 7 15 4 8 1020.1 1015.5 0.0
21/04:30pm 24.0 23.4 13.4 51 6.4 E 9 20 5 11 1019.9 1015.3 0.0
21/04:00pm 24.4 24.2 13.5 50 6.6 E 7 17 4 9 1020.0 1015.4 0.0
21/03:30pm 25.6 24.7 13.6 47 7.3 E 11 20 6 11 1019.8 1015.2 0.0
21/03:00pm 25.3 24.5 13.0 46 7.4 ENE 9 20 5 11 1019.8 1015.2 0.0
21/02:30pm 25.8 25.6 13.1 45 7.7 ENE 6 11 3 6 1019.7 1015.1 0.0
21/02:00pm 26.0 25.5 12.7 43 8.0 NE 7 15 4 8 1020.0 1015.4 0.0
21/01:30pm 26.3 26.0 13.3 44 7.9 ENE 7 15 4 8 1020.1 1015.5 0.0
21/01:00pm 25.9 25.1 13.0 44 7.8 E 9 19 5 10 1020.2 1015.6 0.0
21/12:30pm 24.8 24.1 13.2 48 7.0 ENE 9 20 5 11 1020.4 1015.8 0.0
21/12:00pm 24.2 23.5 12.0 46 7.2 ENE 7 24 4 13 1020.7 1016.2 0.0
21/11:30am 24.2 23.1 9.8 40 8.2 NE 6 13 3 7 1020.9 1016.3 0.0
21/11:00am 24.1 23.2 10.5 42 7.8 NNE 6 11 3 6 1021.4 1016.8 0.0
21/10:30am 23.6 23.4 11.8 47 6.9 ENE 4 6 2 3 1021.7 1017.2 0.0
21/10:00am 23.2 22.6 11.7 48 6.7 ENE 6 17 3 9 1021.8 1017.3 0.0
21/09:30am 22.8 23.2 14.8 60 4.9 ENE 6 11 3 6 1022.0 1017.5 0.0
21/09:00am 20.9 21.1 14.3 66 4.0 ENE 6 11 3 6 1021.9 1017.4 -
21/08:30am 20.5 21.2 15.5 73 3.1 ENE 6 13 3 7 1021.7 1017.2 -
21/08:00am 18.6 19.9 16.2 86 1.5 ENE 4 7 2 4 1021.5 1016.9 -
21/07:30am 17.2 18.4 15.9 92 0.8 NE 4 7 2 4 1021.2 1016.6 -
21/07:00am 16.6 17.8 15.8 95 0.5 NE 4 7 2 4 1021.0 1016.4 -
21/06:30am 15.8 17.5 15.3 97 0.3 CALM 0 0 0 0 1020.4 1015.8 -
21/06:00am 15.3 16.5 15.0 98 0.2 ENE 2 6 1 3 1020.0 1015.4 -
21/05:30am 14.4 15.7 14.1 98 0.2 CALM 0 0 0 0 1019.5 1014.9 -
21/05:00am 15.5 16.8 15.2 98 0.2 ENE 2 4 1 2 1019.1 1014.5 -
21/04:30am 15.4 17.0 14.9 97 0.3 CALM 0 4 0 2 1018.9 1014.3 -
21/04:00am 15.7 17.0 15.2 97 0.3 ENE 2 6 1 3 1018.6 1014.0 -
21/03:30am 15.8 17.1 15.1 96 0.4 ENE 2 6 1 3 1018.5 1013.8 -
21/03:00am 16.3 17.4 15.5 95 0.5 E 4 7 2 4 1018.3 1013.7 0.0
21/02:30am 16.5 18.0 15.8 96 0.4 E 2 7 1 4 1018.2 1013.6 -
21/02:00am 16.1 17.5 15.4 96 0.4 E 2 6 1 3 1018.1 1013.5 -
21/01:30am 16.0 17.0 15.3 96 0.4 E 4 7 2 4 1018.2 1013.6 -
21/01:00am 16.0 17.0 15.3 96 0.4 ENE 4 6 2 3 1018.5 1013.8 -
21/12:30am 16.2 17.2 15.4 95 0.5 E 4 7 2 4 1018.8 1014.2 -
21/12:00am 15.7 17.3 15.0 96 0.4 CALM 0 2 0 1 1019.2 1014.6 -
 
Date/Time
EST
Temp
°C
App
Temp
°C
Dew
Point
°C
Rel
Hum
%
Delta-T
°C
Wind Press
QNH
hPa
Press
MSL
hPa
Rain since
9am
mm
Dir  Spd
km/h
Gust
km/h
Spd
kts
Gust
kts
20/11:30pm 15.4 16.9 14.6 95 0.5 CALM 0 0 0 0 1019.4 1014.8 -
20/11:00pm 16.2 17.8 14.9 92 0.8 CALM 0 6 0 3 1019.2 1014.6 -
20/10:30pm 16.6 17.8 14.8 89 1.1 ESE 2 4 1 2 1019.0 1014.4 -
20/10:00pm 16.7 17.1 13.6 82 1.8 E 4 7 2 4 1019.2 1014.6 -

Other Formats:

Comma delimited format used in spreadsheet applications
http://www.bom.gov.au/fwo/IDQ60801/IDQ60801.94553.axf

JavaScript Object Notation format (JSON) in row-major order
http://www.bom.gov.au/fwo/IDQ60801/IDQ60801.94553.json